Time;durP1;ratioP1;P1;durP2;ratioP2;P2;SDS_P1;SDS_P2;PMS_P1;PMS_P2;Temp;Humidity;BMP_temperature;BMP_pressure;BME280_temperature;BME280_humidity;BME280_pressure;Samples;Min_cycle;Max_cycle;Signal;HPM_P1;HPM_P2
2023/09/24 00:00:29;;;;;;;0.88;0.55;;;24.20;87.40;;;;;;6241365;23;20202;-88
2023/09/24 00:02:57;;;;;;;0.80;0.80;;;24.20;87.70;;;;;;6193053;23;20550;-88
2023/09/24 00:05:26;;;;;;;1.15;0.85;;;24.10;87.50;;;;;;6244699;23;20250;-86
2023/09/24 00:07:55;;;;;;;0.55;0.45;;;24.10;88.70;;;;;;6243725;23;20236;-88
2023/09/24 00:10:25;;;;;;;1.35;1.13;;;24.10;88.10;;;;;;6217518;23;20167;-89
2023/09/24 00:12:56;;;;;;;1.67;1.05;;;24.00;89.20;;;;;;6244826;23;20159;-88
2023/09/24 00:15:27;;;;;;;1.77;0.80;;;24.00;89.20;;;;;;6243221;23;20585;-86
2023/09/24 00:17:56;;;;;;;0.57;0.45;;;23.90;89.70;;;;;;6216307;23;20576;-88
2023/09/24 00:20:25;;;;;;;1.58;1.15;;;23.90;89.60;;;;;;6243913;23;20612;-88
2023/09/24 00:22:54;;;;;;;1.45;0.63;;;23.90;89.20;;;;;;6244482;23;20201;-87
2023/09/24 00:25:23;;;;;;;1.30;1.10;;;23.90;89.60;;;;;;6241555;23;20269;-88
2023/09/24 00:27:54;;;;;;;0.40;0.40;;;23.80;89.60;;;;;;6242351;23;20245;-88
2023/09/24 00:30:23;;;;;;;1.20;1.10;;;23.80;89.90;;;;;;6244010;23;20473;-87
2023/09/24 00:32:52;;;;;;;0.77;0.57;;;23.70;90.50;;;;;;6241131;23;20550;-89
2023/09/24 00:35:22;;;;;;;0.68;0.68;;;23.70;90.40;;;;;;6244671;23;20563;-90
2023/09/24 00:37:51;;;;;;;0.30;0.25;;;23.70;90.40;;;;;;6242693;23;20171;-87
2023/09/24 00:40:21;;;;;;;1.02;0.95;;;23.70;90.50;;;;;;6243714;23;20257;-89
2023/09/24 00:42:50;;;;;;;2.40;0.40;;;23.60;90.70;;;;;;6216696;23;20181;-90
2023/09/24 00:45:21;;;;;;;0.40;0.40;;;23.60;90.90;;;;;;6243511;23;20177;-90
2023/09/24 00:47:51;;;;;;;2.13;0.50;;;23.60;90.70;;;;;;6244084;23;20163;-89
2023/09/24 00:50:20;;;;;;;0.47;0.47;;;23.60;91.10;;;;;;6244943;23;20174;-89
2023/09/24 00:52:51;;;;;;;0.77;0.70;;;23.50;91.30;;;;;;6218604;23;20529;-87
2023/09/24 00:55:23;;;;;;;0.75;0.50;;;23.50;91.00;;;;;;6244854;23;20178;-89
2023/09/24 00:57:52;;;;;;;1.98;1.00;;;23.50;91.00;;;;;;6243660;23;20523;-88
2023/09/24 01:00:22;;;;;;;4.07;1.23;;;23.50;91.00;;;;;;6240809;23;20205;-86
2023/09/24 01:02:52;;;;;;;0.30;0.30;;;23.50;91.30;;;;;;6242012;23;20174;-88
2023/09/24 01:05:21;;;;;;;1.23;0.88;;;23.40;91.40;;;;;;6243468;23;20174;-91
2023/09/24 01:07:50;;;;;;;0.93;0.82;;;23.40;91.60;;;;;;6243108;23;20173;-87
2023/09/24 01:10:23;;;;;;;0.40;0.40;;;23.40;91.70;;;;;;6242396;23;20613;-89
2023/09/24 01:12:58;;;;;;;0.55;0.55;;;23.40;91.80;;;;;;6242444;23;20218;-89
2023/09/24 01:15:31;;;;;;;0.43;0.40;;;23.30;92.00;;;;;;6243655;23;20502;-90
2023/09/24 01:18:01;;;;;;;0.50;0.50;;;23.30;92.30;;;;;;6242012;23;20624;-91
2023/09/24 01:20:31;;;;;;;0.95;0.70;;;23.20;92.50;;;;;;6217798;23;20174;-88
2023/09/24 01:23:03;;;;;;;1.75;0.90;;;23.20;92.40;;;;;;6242638;23;20234;-88
2023/09/24 01:25:35;;;;;;;9.63;2.13;;;23.20;92.50;;;;;;6242091;23;20163;-87
2023/09/24 01:28:05;;;;;;;1.15;0.50;;;23.20;92.50;;;;;;6242652;23;20159;-90
2023/09/24 01:30:35;;;;;;;2.85;0.88;;;23.20;92.50;;;;;;6242119;23;20176;-88
2023/09/24 01:33:04;;;;;;;0.93;0.75;;;23.20;93.00;;;;;;6241736;23;20174;-90
2023/09/24 01:35:36;;;;;;;1.20;0.80;;;23.20;92.80;;;;;;6242457;23;20167;-91
2023/09/24 01:38:07;;;;;;;0.50;0.50;;;23.20;93.20;;;;;;6241254;23;20166;-88
2023/09/24 01:40:38;;;;;;;0.73;0.47;;;23.20;93.10;;;;;;6243759;23;20159;-85
2023/09/24 01:43:07;;;;;;;0.65;0.63;;;23.20;93.10;;;;;;6192607;23;20184;-88
2023/09/24 01:45:39;;;;;;;2.10;0.65;;;23.10;93.40;;;;;;6244049;23;20556;-87
2023/09/24 01:48:08;;;;;;;0.52;0.47;;;23.10;93.40;;;;;;6243189;23;20166;-88
2023/09/24 01:50:37;;;;;;;1.15;1.05;;;23.20;93.40;;;;;;6244562;23;20167;-89
2023/09/24 01:53:09;;;;;;;0.80;0.50;;;23.10;93.70;;;;;;6242849;23;20292;-91
2023/09/24 01:55:39;;;;;;;0.75;0.68;;;23.10;94.30;;;;;;6243636;23;20202;-90
2023/09/24 01:58:08;;;;;;;0.57;0.57;;;23.10;94.30;;;;;;6243170;23;20179;-89
2023/09/24 02:00:37;;;;;;;1.35;0.73;;;23.10;94.30;;;;;;6185191;23;1360936;-92
2023/09/24 02:03:09;;;;;;;0.70;0.70;;;23.10;94.20;;;;;;6244602;23;20177;-89
2023/09/24 02:05:39;;;;;;;0.45;0.45;;;23.10;94.30;;;;;;6244334;23;20170;-89
2023/09/24 02:08:10;;;;;;;0.75;0.60;;;23.10;94.30;;;;;;6245125;23;20254;-87
2023/09/24 02:10:41;;;;;;;1.08;0.70;;;23.10;94.30;;;;;;6246116;23;20166;-86
2023/09/24 02:13:11;;;;;;;3.45;1.63;;;23.10;94.60;;;;;;6244597;23;20165;-88
2023/09/24 02:15:40;;;;;;;0.47;0.38;;;23.10;94.80;;;;;;6244233;23;20249;-89
2023/09/24 02:18:09;;;;;;;0.55;0.47;;;23.10;94.80;;;;;;6244748;23;20257;-87
2023/09/24 02:20:41;;;;;;;2.38;0.73;;;23.00;94.60;;;;;;6246122;23;20175;-88
2023/09/24 02:23:12;;;;;;;0.88;0.75;;;23.00;94.60;;;;;;6244205;23;20547;-88
2023/09/24 02:25:44;;;;;;;1.15;0.68;;;23.10;94.50;;;;;;6245731;23;20529;-88
2023/09/24 02:28:17;;;;;;;0.30;0.30;;;23.10;94.30;;;;;;6218227;23;20204;-88
2023/09/24 02:30:47;;;;;;;1.90;0.77;;;23.10;94.50;;;;;;6243608;23;20159;-87
2023/09/24 02:33:17;;;;;;;1.00;0.85;;;23.10;94.90;;;;;;6192142;23;20625;-88
2023/09/24 02:35:46;;;;;;;4.75;0.75;;;23.10;94.70;;;;;;6218690;23;20177;-89
2023/09/24 02:38:16;;;;;;;0.77;0.77;;;23.00;95.00;;;;;;6219194;23;20198;-87
2023/09/24 02:40:44;;;;;;;0.82;0.82;;;23.00;95.00;;;;;;6244406;23;20172;-88
2023/09/24 02:43:14;;;;;;;1.02;0.52;;;23.00;95.30;;;;;;6245131;23;20166;-88
2023/09/24 02:45:43;;;;;;;1.15;0.85;;;23.00;95.10;;;;;;6246272;23;20177;-86
2023/09/24 02:48:12;;;;;;;1.15;0.57;;;23.00;94.80;;;;;;6247675;23;20494;-90
2023/09/24 02:50:41;;;;;;;0.63;0.63;;;23.00;95.60;;;;;;6246177;23;20186;-88
2023/09/24 02:53:10;;;;;;;1.30;1.05;;;23.00;95.10;;;;;;6219544;23;20170;-86
2023/09/24 02:55:44;;;;;;;0.40;0.40;;;23.00;94.90;;;;;;6246180;23;20607;-90
2023/09/24 02:58:14;;;;;;;0.43;0.38;;;23.00;95.00;;;;;;6242627;23;20196;-84
2023/09/24 03:00:43;;;;;;;1.08;0.85;;;23.00;94.90;;;;;;6243474;23;20194;-86
2023/09/24 03:03:15;;;;;;;1.20;0.47;;;23.00;94.90;;;;;;6242659;23;20171;-87
2023/09/24 03:05:45;;;;;;;0.40;0.40;;;23.10;94.80;;;;;;6241390;23;20162;-87
2023/09/24 03:08:15;;;;;;;1.00;0.65;;;23.00;94.70;;;;;;6242266;23;20237;-88
2023/09/24 03:10:46;;;;;;;0.30;0.30;;;23.10;94.70;;;;;;6241520;23;20171;-88
2023/09/24 03:13:14;;;;;;;0.85;0.68;;;23.10;94.60;;;;;;6243121;23;20165;-87
2023/09/24 03:15:43;;;;;;;0.40;0.40;;;23.00;95.10;;;;;;6242384;23;20177;-87
2023/09/24 03:18:12;;;;;;;0.85;0.75;;;23.10;95.10;;;;;;6242774;23;20190;-90
2023/09/24 03:20:41;;;;;;;1.38;1.27;;;23.10;95.50;;;;;;6218527;23;20249;-89
2023/09/24 03:23:10;;;;;;;0.38;0.38;;;23.00;94.90;;;;;;6219804;23;20242;-86
2023/09/24 03:25:40;;;;;;;1.58;0.98;;;23.10;95.20;;;;;;6246606;23;20174;-87
2023/09/24 03:28:12;;;;;;;0.50;0.50;;;23.10;95.00;;;;;;6243871;23;20167;-85
2023/09/24 03:30:41;;;;;;;0.73;0.73;;;23.10;95.20;;;;;;6242752;23;20166;-87
2023/09/24 03:33:10;;;;;;;1.27;1.05;;;23.10;95.10;;;;;;6244110;23;20166;-87
2023/09/24 03:35:39;;;;;;;3.22;1.00;;;23.10;95.40;;;;;;6244352;23;20194;-87
2023/09/24 03:38:08;;;;;;;1.42;1.13;;;23.10;95.10;;;;;;6244388;23;20579;-89
2023/09/24 03:40:38;;;;;;;9.02;0.98;;;23.10;95.10;;;;;;6245286;23;20171;-85
2023/09/24 03:43:07;;;;;;;0.85;0.85;;;23.10;95.40;;;;;;6238948;23;20159;-85
2023/09/24 03:45:37;;;;;;;0.50;0.50;;;23.10;95.70;;;;;;6244166;23;20620;-86
2023/09/24 03:48:09;;;;;;;0.57;0.57;;;23.10;95.70;;;;;;6216477;23;20177;-85
2023/09/24 03:50:39;;;;;;;1.13;1.00;;;23.10;96.10;;;;;;6245220;23;20169;-85
2023/09/24 03:53:08;;;;;;;0.95;0.68;;;23.10;96.00;;;;;;6214787;23;20179;-89
2023/09/24 03:55:37;;;;;;;0.47;0.40;;;23.10;95.80;;;;;;6246398;23;20170;-86
2023/09/24 03:58:07;;;;;;;1.52;1.20;;;23.10;95.90;;;;;;6241662;23;20428;-88
2023/09/24 04:00:37;;;;;;;0.60;0.60;;;23.10;96.30;;;;;;6243900;23;20198;-88
2023/09/24 04:03:07;;;;;;;2.25;1.30;;;23.10;96.30;;;;;;6242718;23;20177;-90
2023/09/24 04:05:36;;;;;;;0.90;0.88;;;23.10;96.40;;;;;;6191261;23;20232;-88
2023/09/24 04:08:06;;;;;;;0.73;0.63;;;23.10;96.90;;;;;;6240491;23;20627;-86
2023/09/24 04:10:35;;;;;;;0.25;0.25;;;23.10;96.40;;;;;;6243214;23;20245;-84
2023/09/24 04:13:03;;;;;;;0.80;0.80;;;23.10;96.10;;;;;;6242059;23;20166;-86
2023/09/24 04:15:33;;;;;;;0.80;0.73;;;23.10;96.70;;;;;;6244415;23;20229;-88
2023/09/24 04:18:03;;;;;;;0.43;0.43;;;23.10;96.60;;;;;;6243373;23;20236;-87
2023/09/24 04:20:34;;;;;;;2.65;0.77;;;23.10;96.40;;;;;;6244200;23;20205;-89
2023/09/24 04:23:03;;;;;;;1.33;0.77;;;23.10;96.60;;;;;;6241487;23;20166;-90
2023/09/24 04:25:41;;;;;;;0.68;0.60;;;23.10;96.40;;;;;;6240783;23;20170;-87
2023/09/24 04:28:13;;;;;;;1.05;0.50;;;23.10;96.90;;;;;;6242832;23;20596;-87
2023/09/24 04:30:43;;;;;;;1.23;1.10;;;23.10;96.80;;;;;;6242115;23;20170;-88
2023/09/24 04:33:15;;;;;;;1.35;1.10;;;23.10;96.70;;;;;;6244989;23;20166;-88
2023/09/24 04:35:45;;;;;;;1.02;0.88;;;23.10;96.70;;;;;;6241646;23;20167;-89
2023/09/24 04:38:14;;;;;;;0.50;0.50;;;23.10;96.50;;;;;;6242177;23;20198;-87
2023/09/24 04:40:43;;;;;;;0.93;0.52;;;23.10;96.30;;;;;;6242982;23;20166;-86
2023/09/24 04:43:16;;;;;;;1.38;0.95;;;23.10;96.30;;;;;;6241665;23;20167;-87
2023/09/24 04:45:46;;;;;;;0.57;0.50;;;23.10;96.50;;;;;;6216041;23;20570;-88
2023/09/24 05:25:48;;;;;;;1.42;0.82;;;23.30;96.30;;;;;;6287603;22;20220;-84
2023/09/24 05:28:20;;;;;;;2.40;1.05;;;23.30;96.20;;;;;;6285659;22;20226;-88
2023/09/24 05:30:57;;;;;;;2.05;1.58;;;23.40;96.20;;;;;;6280894;22;20248;-87
2023/09/24 05:33:28;;;;;;;1.02;0.80;;;23.40;96.50;;;;;;6306589;22;20165;-88
2023/09/24 05:35:58;;;;;;;1.15;0.80;;;23.40;96.30;;;;;;6298165;22;20177;-87
2023/09/24 05:58:57;;;;;;;0.60;0.60;;;23.70;95.90;;;;;;6291396;22;20238;-85
2023/09/24 06:01:25;;;;;;;4.13;1.08;;;23.70;95.80;;;;;;6306616;22;20157;-87
2023/09/24 06:03:57;;;;;;;0.82;0.75;;;23.70;95.80;;;;;;6304804;22;20169;-88
2023/09/24 06:06:25;;;;;;;2.85;1.17;;;23.80;95.80;;;;;;6305108;22;20158;-88
2023/09/24 06:08:54;;;;;;;0.85;0.45;;;23.90;95.80;;;;;;6304733;22;20173;-85
2023/09/24 06:11:25;;;;;;;1.65;1.55;;;23.80;95.70;;;;;;6307101;22;20239;-85
2023/09/24 06:13:58;;;;;;;1.05;0.82;;;23.90;95.60;;;;;;6304710;22;20161;-89
2023/09/24 06:16:27;;;;;;;1.77;0.68;;;24.00;95.50;;;;;;6304615;22;20604;-86
2023/09/24 06:19:04;;;;;;;1.00;0.80;;;24.00;95.40;;;;;;6304983;22;20193;-86
2023/09/24 06:21:38;;;;;;;1.75;0.95;;;24.00;95.30;;;;;;6306945;22;20603;-86
2023/09/24 06:24:13;;;;;;;0.95;0.70;;;24.10;95.20;;;;;;6277851;22;20211;-85
2023/09/24 06:26:45;;;;;;;0.93;0.57;;;24.10;95.20;;;;;;6255216;22;20153;-86
2023/09/24 06:29:17;;;;;;;0.38;0.38;;;24.10;95.10;;;;;;6278286;22;20165;-87
2023/09/24 06:31:52;;;;;;;0.80;0.73;;;24.20;95.00;;;;;;6306669;22;20493;-85
2023/09/24 06:34:28;;;;;;;1.42;1.17;;;24.30;95.00;;;;;;6305010;22;20176;-86
2023/09/24 06:36:57;;;;;;;0.55;0.55;;;24.30;95.10;;;;;;6303338;22;20160;-87
2023/09/24 06:39:26;;;;;;;1.30;1.20;;;24.30;95.00;;;;;;6272745;22;20277;-83
2023/09/24 06:41:59;;;;;;;1.15;0.98;;;24.40;94.80;;;;;;6302246;22;20561;-87
2023/09/24 06:44:30;;;;;;;0.98;0.80;;;24.50;94.70;;;;;;6279454;22;20153;-82
2023/09/24 06:46:59;;;;;;;3.22;1.02;;;24.50;94.60;;;;;;6306937;22;20649;-86
2023/09/24 06:49:27;;;;;;;0.98;0.95;;;24.60;94.40;;;;;;6307891;22;20161;-85
2023/09/24 06:51:56;;;;;;;1.08;0.80;;;24.60;94.30;;;;;;6305358;22;20188;-85
2023/09/24 06:54:25;;;;;;;0.50;0.50;;;24.60;94.10;;;;;;6307590;22;20212;-86
2023/09/24 06:56:57;;;;;;;1.33;0.90;;;24.70;94.00;;;;;;6278799;22;20229;-86
2023/09/24 06:59:30;;;;;;;0.47;0.47;;;24.70;94.00;;;;;;6257263;22;20232;-86
2023/09/24 07:01:58;;;;;;;0.40;0.40;;;24.80;93.80;;;;;;6306554;22;20161;-88
2023/09/24 07:04:30;;;;;;;1.13;1.00;;;24.80;93.80;;;;;;6305391;22;20195;-87
2023/09/24 07:07:02;;;;;;;0.77;0.68;;;24.80;93.60;;;;;;6279345;22;20164;-86
2023/09/24 07:09:32;;;;;;;1.15;0.93;;;25.00;93.60;;;;;;6280601;22;20619;-88
2023/09/24 07:12:04;;;;;;;0.52;0.52;;;25.00;93.50;;;;;;6280439;22;20176;-90
2023/09/24 07:14:36;;;;;;;1.30;1.20;;;25.00;93.40;;;;;;6280966;22;20173;-88
2023/09/24 07:17:08;;;;;;;1.17;0.98;;;25.10;93.40;;;;;;6305320;22;20161;-86
2023/09/24 07:19:37;;;;;;;0.82;0.80;;;25.10;93.30;;;;;;6306993;22;20195;-86
2023/09/24 07:22:05;;;;;;;0.93;0.43;;;25.20;93.30;;;;;;6307817;22;20201;-88
2023/09/24 07:24:34;;;;;;;0.52;0.52;;;25.30;93.20;;;;;;6307861;22;20271;-89
2023/09/24 07:27:05;;;;;;;1.00;0.90;;;25.30;93.10;;;;;;6307099;22;20169;-86
2023/09/24 07:29:41;;;;;;;0.57;0.57;;;25.40;92.90;;;;;;6309304;22;20247;-89
2023/09/24 07:32:09;;;;;;;0.75;0.60;;;25.40;92.60;;;;;;6308202;22;20198;-88
2023/09/24 07:34:46;;;;;;;1.52;0.75;;;25.40;92.40;;;;;;6315926;22;20199;-86
2023/09/24 07:37:32;;;;;;;1.10;0.57;;;25.40;92.40;;;;;;6321734;22;20256;-88
2023/09/24 07:40:02;;;;;;;0.68;0.50;;;25.50;92.50;;;;;;6326720;22;20257;-86
2023/09/24 07:42:31;;;;;;;0.40;0.40;;;25.60;92.30;;;;;;6298243;22;20216;-87
2023/09/24 07:45:01;;;;;;;0.50;0.50;;;25.60;92.10;;;;;;6300543;22;20372;-87
2023/09/24 07:47:32;;;;;;;0.75;0.75;;;25.70;92.00;;;;;;6299573;22;20161;-87
2023/09/24 07:50:06;;;;;;;0.93;0.82;;;25.80;92.00;;;;;;6320374;22;20173;-88
2023/09/24 07:52:35;;;;;;;1.38;1.27;;;25.80;91.80;;;;;;6319810;22;20158;-88
2023/09/24 07:55:07;;;;;;;0.70;0.52;;;25.90;91.70;;;;;;6321122;22;20161;-86
2023/09/24 07:57:36;;;;;;;1.25;0.82;;;26.00;91.60;;;;;;6319970;22;20169;-87
2023/09/24 08:00:08;;;;;;;1.05;0.80;;;26.10;91.60;;;;;;6283924;22;20197;-88
2023/09/24 08:02:37;;;;;;;2.15;0.65;;;26.10;91.50;;;;;;6249522;22;20227;-89
2023/09/24 08:05:06;;;;;;;0.65;0.57;;;26.20;91.10;;;;;;6275118;22;20166;-86
2023/09/24 08:07:37;;;;;;;0.60;0.50;;;26.20;91.20;;;;;;6274822;22;20228;-89
2023/09/24 08:10:07;;;;;;;0.40;0.40;;;26.30;91.00;;;;;;6248961;22;20192;-87
2023/09/24 08:12:38;;;;;;;0.63;0.50;;;26.30;90.90;;;;;;6249074;22;20158;-88
2023/09/24 08:15:09;;;;;;;1.20;1.10;;;26.40;90.70;;;;;;6275929;22;20172;-87
2023/09/24 08:17:39;;;;;;;0.20;0.20;;;26.50;90.50;;;;;;6275020;22;20238;-89
2023/09/24 08:20:09;;;;;;;0.73;0.73;;;26.50;90.30;;;;;;6271730;22;20284;-88
2023/09/24 08:22:38;;;;;;;0.75;0.70;;;26.60;90.40;;;;;;6247905;22;20161;-87
2023/09/24 08:25:12;;;;;;;0.57;0.57;;;26.70;90.20;;;;;;6251063;22;20166;-94
2023/09/24 08:27:40;;;;;;;1.08;0.77;;;26.80;89.90;;;;;;6273004;22;20189;-88
2023/09/24 08:30:11;;;;;;;0.68;0.63;;;26.80;89.60;;;;;;6247909;22;20539;-85
2023/09/24 08:32:40;;;;;;;1.65;1.30;;;26.90;89.80;;;;;;6272083;22;20158;-83
2023/09/24 08:35:09;;;;;;;1.02;0.80;;;27.00;89.40;;;;;;6273131;22;20236;-85
2023/09/24 08:37:37;;;;;;;1.48;1.13;;;27.00;88.50;;;;;;6273735;22;20166;-85
2023/09/24 08:40:29;;;;;;;1.75;1.25;;;27.10;88.10;;;;;;6271022;22;20650;-86
2023/09/24 08:43:26;;;;;;;1.58;1.42;;;27.20;88.20;;;;;;6273597;22;20162;-85
2023/09/24 08:46:22;;;;;;;0.95;0.50;;;27.30;86.90;;;;;;6247596;22;20215;-88
2023/09/24 08:48:53;;;;;;;0.70;0.52;;;27.30;85.10;;;;;;6272740;22;20615;-88
2023/09/24 08:51:23;;;;;;;0.60;0.60;;;27.40;85.80;;;;;;6272481;22;20158;-87
2023/09/24 08:53:54;;;;;;;1.00;0.85;;;27.50;85.30;;;;;;6269837;22;20269;-91
2023/09/24 08:56:40;;;;;;;1.45;0.75;;;27.50;85.10;;;;;;6246206;22;20252;-89
2023/09/24 08:59:08;;;;;;;0.30;0.30;;;27.60;84.90;;;;;;6291249;22;20247;-85
2023/09/24 09:01:38;;;;;;;1.85;0.57;;;27.60;83.30;;;;;;6303481;22;20226;-84
2023/09/24 09:04:07;;;;;;;0.32;0.32;;;27.70;83.60;;;;;;6302076;22;20614;-84
2023/09/24 09:06:37;;;;;;;0.30;0.30;;;27.70;83.40;;;;;;6302089;22;20272;-86
2023/09/24 09:09:07;;;;;;;1.42;1.20;;;27.80;83.20;;;;;;6302039;22;20169;-87
2023/09/24 09:12:20;;;;;;;0.50;0.50;;;27.90;83.40;;;;;;6303342;22;20188;-86
2023/09/24 09:15:40;;;;;;;0.80;0.60;;;28.00;84.00;;;;;;6288433;22;20169;-82
2023/09/24 09:22:35;;;;;;;0.80;0.80;;;28.10;82.50;;;;;;6240194;22;20201;-87
2023/09/24 09:25:46;;;;;;;;;;;;;;;;;;;;;
2023/09/24 09:28:22;;;;;;;1.10;0.60;;;28.30;81.70;;;;;;6238864;23;20174;-89
2023/09/24 09:31:11;;;;;;;1.33;0.82;;;28.30;80.70;;;;;;6189930;23;20166;-89
2023/09/24 09:33:42;;;;;;;0.22;0.22;;;28.40;80.10;;;;;;6242607;22;20501;-91
2023/09/24 09:36:21;;;;;;;0.75;0.40;;;28.40;80.40;;;;;;6241638;23;20237;-88
2023/09/24 09:38:53;;;;;;;1.75;1.10;;;28.60;80.40;;;;;;6240432;23;20189;-87
2023/09/24 09:41:23;;;;;;;0.52;0.40;;;28.60;80.20;;;;;;6240825;23;20484;-87
2023/09/24 09:43:53;;;;;;;2.25;0.55;;;28.70;79.90;;;;;;6242791;23;20170;-87
2023/09/24 09:46:23;;;;;;;1.02;0.60;;;28.80;79.30;;;;;;6242383;23;20155;-87
2023/09/24 09:49:12;;;;;;;1.05;0.77;;;28.80;78.40;;;;;;6241465;23;20181;-89
2023/09/24 09:55:50;;;;;;;0.30;0.30;;;28.90;77.30;;;;;;6270925;22;20208;-89
2023/09/24 09:58:36;;;;;;;0.88;0.50;;;29.00;77.80;;;;;;6273365;22;20189;-87
2023/09/24 10:01:08;;;;;;;0.82;0.82;;;29.00;76.50;;;;;;6275785;22;20181;-87
2023/09/24 10:04:00;;;;;;;1.08;0.45;;;29.10;76.60;;;;;;6274473;22;20162;-86
2023/09/24 10:06:45;;;;;;;0.70;0.57;;;29.20;76.90;;;;;;6268944;22;20173;-87
2023/09/24 10:09:49;;;;;;;2.92;0.73;;;29.20;74.60;;;;;;6275601;22;20184;-89
2023/09/24 10:12:59;;;;;;;0.40;0.40;;;29.30;74.60;;;;;;6273111;22;20253;-88
2023/09/24 10:15:56;;;;;;;0.68;0.63;;;29.40;73.60;;;;;;6283041;22;20209;-89
2023/09/24 10:19:14;;;;;;;0.35;0.35;;;29.40;72.90;;;;;;6290567;22;20542;-88
2023/09/24 10:21:50;;;;;;;0.52;0.40;;;29.50;72.10;;;;;;6303079;22;20219;-88
2023/09/24 10:28:35;;;;;;;1.48;0.77;;;29.70;72.80;;;;;;6265119;22;20173;-85
2023/09/24 10:31:24;;;;;;;;;;;;;;;;;;;;;
2023/09/24 10:34:39;;;;;;;0.75;0.73;;;29.80;71.30;;;;;;6306445;22;20164;-87
2023/09/24 10:37:15;;;;;;;0.70;0.70;;;29.90;71.80;;;;;;6252129;22;20214;-89
2023/09/24 10:40:20;;;;;;;1.08;0.50;;;29.90;71.60;;;;;;6303995;22;20197;-86
2023/09/24 10:43:14;;;;;;;0.45;0.40;;;30.00;70.50;;;;;;6305131;22;20167;-84
2023/09/24 10:45:53;;;;;;;0.73;0.52;;;30.10;70.30;;;;;;6305525;22;20211;-92
2023/09/24 10:48:54;;;;;;;7.85;1.45;;;30.20;70.20;;;;;;6305167;22;20161;-87
2023/09/24 10:51:41;;;;;;;2.38;0.82;;;30.20;69.80;;;;;;6306560;22;20239;-87
2023/09/24 10:54:27;;;;;;;0.52;0.43;;;30.30;68.60;;;;;;6306535;22;20161;-87
2023/09/24 10:57:44;;;;;;;1.33;1.08;;;30.40;68.70;;;;;;6304979;22;20184;-91
2023/09/24 11:03:47;;;;;;;1.65;0.98;;;30.50;67.80;;;;;;6281242;22;20176;-89
2023/09/24 11:06:17;;;;;;;2.35;1.65;;;30.60;67.20;;;;;;6305082;22;20168;-86
2023/09/24 11:08:45;;;;;;;1.95;0.50;;;30.60;66.70;;;;;;6301780;22;20169;-84
2023/09/24 11:11:16;;;;;;;1.45;0.63;;;30.60;65.00;;;;;;6307013;22;20505;-89
2023/09/24 11:13:44;;;;;;;0.40;0.40;;;30.70;65.80;;;;;;6305371;22;20180;-89
2023/09/24 11:16:19;;;;;;;0.38;0.38;;;30.80;66.40;;;;;;6306400;22;20221;-90
2023/09/24 11:18:52;;;;;;;1.73;1.15;;;30.80;65.70;;;;;;6311387;22;20254;-90
2023/09/24 11:21:31;;;;;;;2.30;1.17;;;30.80;64.70;;;;;;6279739;22;20700;-88
2023/09/24 11:23:59;;;;;;;8.27;1.40;;;30.90;64.40;;;;;;6306491;22;20153;-89
2023/09/24 11:26:31;;;;;;;1.58;0.77;;;30.90;63.80;;;;;;6306943;22;20224;-87
2023/09/24 11:28:59;;;;;;;5.97;1.10;;;31.00;65.20;;;;;;6306681;22;20188;-90
2023/09/24 11:31:28;;;;;;;1.65;0.43;;;31.10;64.20;;;;;;6280141;22;20169;-88
2023/09/24 11:34:07;;;;;;;0.43;0.43;;;31.10;64.20;;;;;;6314025;22;20551;-89
2023/09/24 11:36:36;;;;;;;0.35;0.35;;;31.10;63.40;;;;;;6306985;22;20157;-89
2023/09/24 11:39:05;;;;;;;0.38;0.38;;;31.20;63.40;;;;;;6306172;22;20253;-88
2023/09/24 11:41:34;;;;;;;0.85;0.50;;;31.30;63.20;;;;;;6306498;22;20197;-87
2023/09/24 11:44:06;;;;;;;0.32;0.32;;;31.30;62.70;;;;;;6305583;22;20176;-87
2023/09/24 11:46:35;;;;;;;0.70;0.70;;;31.40;63.10;;;;;;6304907;22;20333;-86
2023/09/24 11:49:06;;;;;;;0.82;0.60;;;31.40;63.00;;;;;;6307298;22;20169;-90
2023/09/24 11:51:39;;;;;;;1.65;1.10;;;31.40;62.20;;;;;;6278140;22;20169;-86
2023/09/24 11:54:13;;;;;;;1.10;0.75;;;31.50;61.80;;;;;;6307354;22;20172;-89
2023/09/24 11:56:42;;;;;;;0.30;0.30;;;31.60;61.10;;;;;;6306347;22;20157;-89
2023/09/24 11:59:14;;;;;;;1.23;0.73;;;31.60;61.10;;;;;;6305869;22;20172;-91
2023/09/24 12:01:56;;;;;;;1.25;0.77;;;31.60;61.10;;;;;;6303566;22;20212;-88
2023/09/24 12:04:32;;;;;;;1.23;0.75;;;31.60;60.70;;;;;;6306647;22;20168;-89
2023/09/24 12:07:01;;;;;;;0.43;0.30;;;31.70;60.60;;;;;;6305178;22;20153;-88
2023/09/24 12:09:35;;;;;;;0.93;0.60;;;31.70;60.60;;;;;;6305842;22;20496;-89
2023/09/24 12:12:03;;;;;;;0.70;0.70;;;31.70;59.90;;;;;;6304808;22;20164;-89
2023/09/24 12:14:34;;;;;;;0.30;0.30;;;31.80;59.80;;;;;;6304432;22;20193;-89
2023/09/24 12:17:02;;;;;;;0.73;0.60;;;31.80;59.90;;;;;;6306544;22;20633;-89
2023/09/24 12:19:35;;;;;;;0.65;0.65;;;31.90;59.90;;;;;;6307053;22;20181;-88
2023/09/24 12:22:08;;;;;;;0.70;0.45;;;31.90;59.90;;;;;;6305919;22;20211;-88
2023/09/24 14:51:14;;;;;;;;;;;;;;;;;;;;;
2023/09/24 14:56:32;;;;;;;1.65;1.10;;;31.60;57.20;;;;;;6293734;22;20207;-83
2023/09/24 14:59:01;;;;;;;1.98;1.10;;;31.60;57.40;;;;;;6304371;22;20226;-83
2023/09/24 15:01:32;;;;;;;0.73;0.73;;;31.50;57.50;;;;;;6303432;22;20221;-84
2023/09/24 15:04:00;;;;;;;1.20;0.88;;;31.50;57.20;;;;;;6305281;22;20511;-83
2023/09/24 15:06:29;;;;;;;0.35;0.32;;;31.50;57.90;;;;;;6303934;22;20692;-83
2023/09/24 15:15:53;;;;;;;;;;;;;;;;;;;;;
2023/09/24 15:22:09;;;;;;;0.65;0.65;;;31.10;56.90;;;;;;6110706;22;20256;-87
2023/09/24 15:24:37;;;;;;;0.80;0.80;;;31.10;57.10;;;;;;6302473;22;20671;-84
2023/09/24 15:27:06;;;;;;;0.77;0.75;;;31.00;56.90;;;;;;6302383;22;20682;-84
2023/09/24 15:29:35;;;;;;;1.67;0.65;;;30.90;56.80;;;;;;6302294;22;20169;-85
2023/09/24 15:32:04;;;;;;;0.90;0.75;;;30.90;57.00;;;;;;6305052;22;20248;-86
2023/09/24 15:34:33;;;;;;;0.70;0.68;;;30.80;56.90;;;;;;6303523;22;20197;-84
2023/09/24 15:37:02;;;;;;;0.50;0.22;;;30.70;57.00;;;;;;6303391;22;20165;-87
2023/09/24 15:39:33;;;;;;;1.13;0.45;;;30.60;57.10;;;;;;6305405;22;20256;-87
2023/09/24 15:42:01;;;;;;;0.30;0.30;;;30.60;57.10;;;;;;6305553;22;20553;-85
2023/09/24 15:44:31;;;;;;;0.50;0.50;;;30.60;57.30;;;;;;6303516;22;20204;-86
2023/09/24 15:46:59;;;;;;;0.52;0.30;;;30.40;57.20;;;;;;6305389;22;20240;-84
2023/09/24 15:49:32;;;;;;;0.45;0.45;;;30.40;57.40;;;;;;6304650;22;20549;-82
2023/09/24 15:52:03;;;;;;;0.20;0.20;;;30.30;57.40;;;;;;6305031;22;20169;-86
2023/09/24 15:54:33;;;;;;;0.47;0.28;;;30.30;57.50;;;;;;6304746;22;20180;-84
2023/09/24 15:57:02;;;;;;;0.60;0.60;;;30.20;57.70;;;;;;6304380;22;20173;-85
2023/09/24 15:59:31;;;;;;;0.32;0.32;;;30.10;57.70;;;;;;6304517;22;20165;-84
2023/09/24 16:03:06;;;;;;;0.85;0.77;;;30.10;57.80;;;;;;6262932;22;21037;-84
2023/09/24 16:05:42;;;;;;;0.85;0.63;;;30.00;58.10;;;;;;6123597;23;20175;-85
2023/09/24 16:08:40;;;;;;;0.22;0.22;;;30.00;58.30;;;;;;6221102;22;20179;-83
2023/09/24 16:11:21;;;;;;;0.85;0.60;;;29.90;58.40;;;;;;6304708;22;20164;-83
2023/09/24 16:13:55;;;;;;;0.55;0.55;;;29.90;58.60;;;;;;6302298;22;20171;-86
2023/09/24 16:26:42;;;;;;;0.50;0.30;;;29.60;59.20;;;;;;6194303;22;20254;-85
2023/09/24 16:35:44;;;;;;;1.48;0.40;;;29.40;59.30;;;;;;6201052;23;20163;-84
2023/09/24 16:45:00;;;;;;;0.32;0.32;;;29.20;59.40;;;;;;6248007;22;20206;-85
2023/09/24 16:48:09;;;;;;;2.20;1.00;;;29.20;59.40;;;;;;6227462;22;20408;-88
2023/09/24 16:51:53;;;;;;;0.30;0.30;;;29.10;59.50;;;;;;6308958;22;20203;-88
2023/09/24 16:58:16;;;;;;;0.73;0.65;;;28.90;59.50;;;;;;6112564;23;20180;-90
2023/09/24 17:00:54;;;;;;;1.48;0.80;;;28.90;59.70;;;;;;6177234;22;20172;-85
2023/09/24 17:04:27;;;;;;;0.35;0.35;;;28.80;59.70;;;;;;6283236;22;20504;-85
2023/09/24 17:36:17;;;;;;;0.40;0.30;;;28.30;62.30;;;;;;6307262;22;20229;-85
2023/09/24 17:53:28;;;;;;;0.40;0.40;;;28.00;63.30;;;;;;6063310;23;20289;-88
2023/09/24 18:17:15;;;;;;;0.35;0.35;;;27.70;64.40;;;;;;6223314;22;20215;-86
2023/09/24 18:40:46;;;;;;;0.30;0.30;;;27.30;65.00;;;;;;6211063;23;20533;-84
2023/09/24 18:43:46;;;;;;;6.53;0.55;;;27.20;65.40;;;;;;6202861;23;20522;-85
2023/09/24 19:10:54;;;;;;;0.73;0.50;;;26.90;66.20;;;;;;6242349;22;20214;-87
2023/09/24 19:14:38;;;;;;;0.95;0.35;;;26.90;66.50;;;;;;6177080;23;20168;-85
2023/09/24 19:24:45;;;;;;;0.95;0.57;;;26.80;67.10;;;;;;6225132;22;20206;-85
2023/09/24 19:37:34;;;;;;;0.50;0.50;;;26.70;67.70;;;;;;6164212;22;20177;-87
2023/09/24 19:40:09;;;;;;;0.98;0.88;;;26.60;67.90;;;;;;6302404;22;20161;-84
2023/09/24 19:42:39;;;;;;;0.30;0.30;;;26.60;67.90;;;;;;6302786;22;20157;-85
2023/09/24 19:45:11;;;;;;;0.30;0.30;;;26.60;68.00;;;;;;6304516;22;20195;-85
2023/09/24 19:47:40;;;;;;;1.88;0.70;;;26.50;68.00;;;;;;6303144;22;20519;-85
2023/09/24 19:50:09;;;;;;;0.38;0.38;;;26.50;68.60;;;;;;6303605;22;20610;-84
2023/09/24 19:52:39;;;;;;;0.65;0.30;;;26.50;68.70;;;;;;6304866;22;20200;-85
2023/09/24 19:55:08;;;;;;;0.22;0.22;;;26.50;68.90;;;;;;6305033;22;20244;-84